Bowerman Airport Hoquiam US
ICAO: KHQM
IATA: HQM
Category: Medium
Scheduled Services: No

Elevation: 18 ft
TransAlt. 18000 ft.

Airport Communications:
ASOS:135.775
SEATTLE CNTR:128.3
SEATTLE RDO:122.2
CTAF/UNICOM:122.7

KHQM Zoom In..

Runways:

(A) RW 06 length 5000 ft width 150 ft
---- / hdg 60

(B) RW 24 length 5000 ft width 150 ft
ILS 108.70 / hdg 240

Location; KHQM
Day. 21 / Time. 05.53 Zulu
* Altimeter: 30.16
* Temperature: 13° c. 55.4°f.
* Wind from: 270° Speed 09 kn.
Dewpoint: 12° c.
Visibility: 8 Statute Miles.
Clouds: Clear (automated report).

KHQM 210553Z AUTO 27009KT 8SM CLR 13/12 A3016 RMK AO2 SLP217 T01330117 10189 20133 50000


Wind From 270°
Speed 09 kn.

 
 
jpsmedia.com for Web Design worldairports.se 2018   terms of use